sensor_id;sensor_type;location;lat;lon;timestamp;P1;durP1;ratioP1;P2;durP2;ratioP2
75730;SDS011;64350;47.450;19.124;2023-02-01T05:46:59;5.25;;;2.00;;
75730;SDS011;64350;47.450;19.124;2023-02-01T05:49:25;4.63;;;2.10;;
75730;SDS011;64350;47.450;19.124;2023-02-01T05:51:50;4.90;;;2.30;;
75730;SDS011;64350;47.450;19.124;2023-02-01T05:54:15;4.87;;;2.30;;
75730;SDS011;64350;47.450;19.124;2023-02-01T05:56:41;4.30;;;1.87;;
75730;SDS011;64350;47.450;19.124;2023-02-01T05:59:06;5.30;;;2.13;;
75730;SDS011;64350;47.450;19.124;2023-02-01T06:01:32;4.77;;;2.00;;
75730;SDS011;64350;47.450;19.124;2023-02-01T06:03:57;4.60;;;2.23;;
75730;SDS011;64350;47.450;19.124;2023-02-01T06:06:22;5.20;;;2.37;;
75730;SDS011;64350;47.450;19.124;2023-02-01T06:08:48;6.10;;;2.70;;
75730;SDS011;64350;47.450;19.124;2023-02-01T06:11:13;6.30;;;2.40;;
75730;SDS011;64350;47.450;19.124;2023-02-01T06:13:39;6.20;;;2.60;;
75730;SDS011;64350;47.450;19.124;2023-02-01T06:16:04;5.22;;;2.22;;
75730;SDS011;64350;47.450;19.124;2023-02-01T06:18:32;5.60;;;2.27;;
75730;SDS011;64350;47.450;19.124;2023-02-01T06:20:59;5.72;;;2.42;;
75730;SDS011;64350;47.450;19.124;2023-02-01T06:23:28;6.32;;;2.08;;
75730;SDS011;64350;47.450;19.124;2023-02-01T06:26:04;5.43;;;2.30;;
75730;SDS011;64350;47.450;19.124;2023-02-01T06:28:31;5.60;;;2.35;;
75730;SDS011;64350;47.450;19.124;2023-02-01T06:30:57;6.80;;;2.90;;
75730;SDS011;64350;47.450;19.124;2023-02-01T06:33:26;5.30;;;2.37;;
75730;SDS011;64350;47.450;19.124;2023-02-01T06:35:58;4.90;;;2.20;;
75730;SDS011;64350;47.450;19.124;2023-02-01T06:38:24;5.47;;;2.55;;
75730;SDS011;64350;47.450;19.124;2023-02-01T08:58:53;5.95;;;3.03;;
75730;SDS011;64350;47.450;19.124;2023-02-01T09:01:18;8.80;;;2.83;;
75730;SDS011;64350;47.450;19.124;2023-02-01T09:03:44;5.97;;;2.97;;
75730;SDS011;64350;47.450;19.124;2023-02-01T09:06:10;6.72;;;2.95;;
75730;SDS011;64350;47.450;19.124;2023-02-01T09:08:37;7.17;;;2.50;;
75730;SDS011;64350;47.450;19.124;2023-02-01T09:11:04;6.55;;;2.67;;
75730;SDS011;64350;47.450;19.124;2023-02-01T09:13:32;4.82;;;2.50;;
75730;SDS011;64350;47.450;19.124;2023-02-01T09:15:58;5.53;;;2.37;;
75730;SDS011;64350;47.450;19.124;2023-02-01T09:18:24;6.43;;;2.87;;
75730;SDS011;64350;47.450;19.124;2023-02-01T09:20:50;5.53;;;2.37;;
75730;SDS011;64350;47.450;19.124;2023-02-01T09:23:16;5.33;;;2.83;;
75730;SDS011;64350;47.450;19.124;2023-02-01T09:25:41;6.07;;;2.90;;
75730;SDS011;64350;47.450;19.124;2023-02-01T09:28:07;6.10;;;3.30;;
75730;SDS011;64350;47.450;19.124;2023-02-01T09:30:34;8.35;;;2.78;;
75730;SDS011;64350;47.450;19.124;2023-02-01T09:33:00;5.97;;;2.78;;
75730;SDS011;64350;47.450;19.124;2023-02-01T09:35:25;7.33;;;3.30;;
75730;SDS011;64350;47.450;19.124;2023-02-01T09:37:52;6.20;;;3.07;;
75730;SDS011;64350;47.450;19.124;2023-02-01T09:40:18;6.47;;;2.85;;
75730;SDS011;64350;47.450;19.124;2023-02-01T09:48:19;7.57;;;2.72;;
75730;SDS011;64350;47.450;19.124;2023-02-01T09:50:50;6.93;;;3.30;;
75730;SDS011;64350;47.450;19.124;2023-02-01T09:53:21;8.35;;;3.75;;
75730;SDS011;64350;47.450;19.124;2023-02-01T09:55:50;5.28;;;2.50;;
75730;SDS011;64350;47.450;19.124;2023-02-01T09:58:32;5.73;;;2.90;;
75730;SDS011;64350;47.450;19.124;2023-02-01T10:01:23;7.00;;;3.37;;
75730;SDS011;64350;47.450;19.124;2023-02-01T10:03:49;6.50;;;2.60;;
75730;SDS011;64350;47.450;19.124;2023-02-01T10:15:43;7.07;;;2.95;;
75730;SDS011;64350;47.450;19.124;2023-02-01T10:18:05;8.52;;;3.33;;
75730;SDS011;64350;47.450;19.124;2023-02-01T10:20:44;7.18;;;3.22;;
75730;SDS011;64350;47.450;19.124;2023-02-01T10:25:55;6.13;;;2.87;;
75730;SDS011;64350;47.450;19.124;2023-02-01T10:28:22;6.47;;;3.12;;
75730;SDS011;64350;47.450;19.124;2023-02-01T10:30:49;7.55;;;3.45;;
75730;SDS011;64350;47.450;19.124;2023-02-01T10:33:55;7.93;;;3.15;;
75730;SDS011;64350;47.450;19.124;2023-02-01T10:38:37;8.87;;;3.20;;
75730;SDS011;64350;47.450;19.124;2023-02-01T10:41:04;6.90;;;3.60;;
75730;SDS011;64350;47.450;19.124;2023-02-01T10:43:39;5.50;;;3.00;;
75730;SDS011;64350;47.450;19.124;2023-02-01T10:46:06;5.87;;;2.77;;
75730;SDS011;64350;47.450;19.124;2023-02-01T10:48:32;7.70;;;3.05;;
75730;SDS011;64350;47.450;19.124;2023-02-01T10:50:58;6.22;;;3.50;;
75730;SDS011;64350;47.450;19.124;2023-02-01T10:53:30;7.57;;;3.10;;
75730;SDS011;64350;47.450;19.124;2023-02-01T10:56:05;9.75;;;3.80;;
75730;SDS011;64350;47.450;19.124;2023-02-01T10:58:32;8.02;;;3.58;;
75730;SDS011;64350;47.450;19.124;2023-02-01T11:01:02;7.50;;;3.40;;
75730;SDS011;64350;47.450;19.124;2023-02-01T11:03:34;6.68;;;3.10;;
75730;SDS011;64350;47.450;19.124;2023-02-01T11:06:04;9.95;;;3.72;;
75730;SDS011;64350;47.450;19.124;2023-02-01T11:08:54;8.10;;;3.97;;
75730;SDS011;64350;47.450;19.124;2023-02-01T11:11:21;11.77;;;4.50;;
75730;SDS011;64350;47.450;19.124;2023-02-01T11:13:55;5.93;;;3.40;;
75730;SDS011;64350;47.450;19.124;2023-02-01T11:16:28;6.78;;;3.70;;
75730;SDS011;64350;47.450;19.124;2023-02-01T11:19:03;7.07;;;3.40;;
75730;SDS011;64350;47.450;19.124;2023-02-01T11:21:29;9.50;;;3.55;;
75730;SDS011;64350;47.450;19.124;2023-02-01T11:23:54;8.80;;;3.47;;
75730;SDS011;64350;47.450;19.124;2023-02-01T11:29:04;7.32;;;3.80;;
75730;SDS011;64350;47.450;19.124;2023-02-01T11:31:35;7.67;;;3.80;;
75730;SDS011;64350;47.450;19.124;2023-02-01T11:34:05;6.53;;;3.10;;
75730;SDS011;64350;47.450;19.124;2023-02-01T11:36:37;6.50;;;3.60;;
75730;SDS011;64350;47.450;19.124;2023-02-01T11:39:08;7.90;;;3.73;;
75730;SDS011;64350;47.450;19.124;2023-02-01T11:41:41;7.95;;;3.95;;
75730;SDS011;64350;47.450;19.124;2023-02-01T11:44:15;9.40;;;4.10;;
75730;SDS011;64350;47.450;19.124;2023-02-01T11:46:46;8.15;;;4.20;;
75730;SDS011;64350;47.450;19.124;2023-02-01T11:52:21;8.02;;;4.15;;
75730;SDS011;64350;47.450;19.124;2023-02-01T11:55:00;7.40;;;3.87;;
75730;SDS011;64350;47.450;19.124;2023-02-01T12:16:35;11.20;;;4.68;;
75730;SDS011;64350;47.450;19.124;2023-02-01T12:44:38;7.65;;;3.40;;
75730;SDS011;64350;47.450;19.124;2023-02-01T12:49:47;7.20;;;4.12;;
75730;SDS011;64350;47.450;19.124;2023-02-01T12:52:21;7.80;;;3.80;;
75730;SDS011;64350;47.450;19.124;2023-02-01T12:57:36;8.02;;;4.15;;
75730;SDS011;64350;47.450;19.124;2023-02-01T13:00:12;8.43;;;3.60;;
75730;SDS011;64350;47.450;19.124;2023-02-01T13:02:57;8.18;;;4.05;;
75730;SDS011;64350;47.450;19.124;2023-02-01T13:05:28;8.27;;;4.17;;
75730;SDS011;64350;47.450;19.124;2023-02-01T13:08:02;10.82;;;3.80;;
75730;SDS011;64350;47.450;19.124;2023-02-01T13:13:11;9.40;;;4.78;;
75730;SDS011;64350;47.450;19.124;2023-02-01T13:15:43;9.43;;;5.00;;
75730;SDS011;64350;47.450;19.124;2023-02-01T13:18:13;6.17;;;3.00;;
75730;SDS011;64350;47.450;19.124;2023-02-01T13:25:49;8.07;;;3.92;;
75730;SDS011;64350;47.450;19.124;2023-02-01T13:28:29;8.60;;;4.10;;
75730;SDS011;64350;47.450;19.124;2023-02-01T13:34:04;9.25;;;4.53;;
75730;SDS011;64350;47.450;19.124;2023-02-01T13:42:20;7.95;;;4.32;;
75730;SDS011;64350;47.450;19.124;2023-02-01T13:47:25;8.88;;;4.05;;
75730;SDS011;64350;47.450;19.124;2023-02-01T13:49:52;6.95;;;3.92;;
75730;SDS011;64350;47.450;19.124;2023-02-01T13:52:32;8.88;;;3.97;;
75730;SDS011;64350;47.450;19.124;2023-02-01T13:55:22;10.73;;;4.47;;
75730;SDS011;64350;47.450;19.124;2023-02-01T13:57:50;9.30;;;4.20;;
75730;SDS011;64350;47.450;19.124;2023-02-01T14:00:31;7.43;;;3.75;;
75730;SDS011;64350;47.450;19.124;2023-02-01T14:13:34;10.65;;;4.20;;
75730;SDS011;64350;47.450;19.124;2023-02-01T14:23:43;8.50;;;3.87;;
75730;SDS011;64350;47.450;19.124;2023-02-01T14:26:10;8.60;;;4.10;;
75730;SDS011;64350;47.450;19.124;2023-02-01T14:29:03;7.68;;;3.70;;
75730;SDS011;64350;47.450;19.124;2023-02-01T14:34:29;9.23;;;4.00;;
75730;SDS011;64350;47.450;19.124;2023-02-01T14:37:00;10.20;;;4.80;;
75730;SDS011;64350;47.450;19.124;2023-02-01T14:44:49;7.22;;;3.85;;
75730;SDS011;64350;47.450;19.124;2023-02-01T14:52:49;8.00;;;4.00;;
75730;SDS011;64350;47.450;19.124;2023-02-01T15:00:57;8.18;;;3.65;;
75730;SDS011;64350;47.450;19.124;2023-02-01T15:06:24;7.20;;;3.45;;
75730;SDS011;64350;47.450;19.124;2023-02-01T15:08:52;7.35;;;2.85;;
75730;SDS011;64350;47.450;19.124;2023-02-01T15:11:19;6.50;;;2.70;;
75730;SDS011;64350;47.450;19.124;2023-02-01T15:13:49;9.90;;;3.15;;
75730;SDS011;64350;47.450;19.124;2023-02-01T15:16:16;13.07;;;3.37;;
75730;SDS011;64350;47.450;19.124;2023-02-01T15:18:42;19.50;;;4.28;;
75730;SDS011;64350;47.450;19.124;2023-02-01T15:21:19;11.50;;;3.30;;
75730;SDS011;64350;47.450;19.124;2023-02-01T15:24:09;24.43;;;5.83;;
75730;SDS011;64350;47.450;19.124;2023-02-01T15:26:36;7.07;;;2.67;;
75730;SDS011;64350;47.450;19.124;2023-02-01T15:29:01;5.67;;;2.33;;
75730;SDS011;64350;47.450;19.124;2023-02-01T15:31:34;5.00;;;1.90;;
75730;SDS011;64350;47.450;19.124;2023-02-01T15:34:05;4.73;;;1.83;;
75730;SDS011;64350;47.450;19.124;2023-02-01T15:36:31;5.53;;;1.65;;
75730;SDS011;64350;47.450;19.124;2023-02-01T15:39:13;6.53;;;2.72;;
75730;SDS011;64350;47.450;19.124;2023-02-01T15:41:44;6.30;;;2.10;;
75730;SDS011;64350;47.450;19.124;2023-02-01T15:44:31;5.03;;;2.00;;
75730;SDS011;64350;47.450;19.124;2023-02-01T15:46:59;7.68;;;2.20;;
75730;SDS011;64350;47.450;19.124;2023-02-01T15:49:30;5.00;;;2.08;;
75730;SDS011;64350;47.450;19.124;2023-02-01T15:51:58;6.53;;;2.42;;
75730;SDS011;64350;47.450;19.124;2023-02-01T15:54:26;6.05;;;2.15;;
75730;SDS011;64350;47.450;19.124;2023-02-01T15:56:55;6.23;;;2.60;;
75730;SDS011;64350;47.450;19.124;2023-02-01T15:59:23;4.97;;;1.80;;
75730;SDS011;64350;47.450;19.124;2023-02-01T16:01:50;5.20;;;2.08;;
75730;SDS011;64350;47.450;19.124;2023-02-01T16:04:20;5.93;;;2.50;;
75730;SDS011;64350;47.450;19.124;2023-02-01T16:06:50;6.65;;;2.10;;
75730;SDS011;64350;47.450;19.124;2023-02-01T16:09:21;6.37;;;2.30;;
75730;SDS011;64350;47.450;19.124;2023-02-01T16:14:22;7.10;;;1.80;;
75730;SDS011;64350;47.450;19.124;2023-02-01T16:16:48;6.35;;;1.80;;
75730;SDS011;64350;47.450;19.124;2023-02-01T16:19:14;5.30;;;1.80;;
75730;SDS011;64350;47.450;19.124;2023-02-01T16:21:39;5.12;;;1.50;;
75730;SDS011;64350;47.450;19.124;2023-02-01T16:24:05;4.20;;;1.30;;
75730;SDS011;64350;47.450;19.124;2023-02-01T16:26:31;5.15;;;2.00;;
75730;SDS011;64350;47.450;19.124;2023-02-01T16:28:57;7.25;;;1.90;;
75730;SDS011;64350;47.450;19.124;2023-02-01T16:31:27;8.87;;;2.30;;
75730;SDS011;64350;47.450;19.124;2023-02-01T16:33:55;7.12;;;2.12;;
75730;SDS011;64350;47.450;19.124;2023-02-01T16:36:21;4.45;;;1.83;;
75730;SDS011;64350;47.450;19.124;2023-02-01T16:38:46;4.53;;;1.70;;
75730;SDS011;64350;47.450;19.124;2023-02-01T16:41:14;4.55;;;1.58;;
75730;SDS011;64350;47.450;19.124;2023-02-01T16:43:41;6.57;;;2.00;;
75730;SDS011;64350;47.450;19.124;2023-02-01T16:46:11;6.00;;;1.90;;
75730;SDS011;64350;47.450;19.124;2023-02-01T16:48:42;3.92;;;1.48;;
75730;SDS011;64350;47.450;19.124;2023-02-01T16:51:12;5.20;;;1.80;;
75730;SDS011;64350;47.450;19.124;2023-02-01T16:53:39;4.77;;;1.97;;
75730;SDS011;64350;47.450;19.124;2023-02-01T16:56:18;4.93;;;1.50;;
75730;SDS011;64350;47.450;19.124;2023-02-01T16:58:45;5.03;;;1.85;;
75730;SDS011;64350;47.450;19.124;2023-02-01T17:01:12;5.00;;;1.70;;
75730;SDS011;64350;47.450;19.124;2023-02-01T17:03:39;5.37;;;2.07;;
75730;SDS011;64350;47.450;19.124;2023-02-01T17:06:09;6.65;;;1.87;;
75730;SDS011;64350;47.450;19.124;2023-02-01T17:08:37;8.25;;;2.37;;
75730;SDS011;64350;47.450;19.124;2023-02-01T17:11:05;6.32;;;2.50;;
75730;SDS011;64350;47.450;19.124;2023-02-01T17:13:31;6.80;;;2.40;;
75730;SDS011;64350;47.450;19.124;2023-02-01T17:15:59;6.67;;;2.40;;
75730;SDS011;64350;47.450;19.124;2023-02-01T17:18:28;7.50;;;3.25;;
75730;SDS011;64350;47.450;19.124;2023-02-01T17:20:59;11.23;;;3.67;;
75730;SDS011;64350;47.450;19.124;2023-02-01T17:23:27;9.65;;;3.55;;
75730;SDS011;64350;47.450;19.124;2023-02-01T17:25:53;8.38;;;3.47;;
75730;SDS011;64350;47.450;19.124;2023-02-01T17:28:18;9.90;;;3.80;;
75730;SDS011;64350;47.450;19.124;2023-02-01T17:30:44;8.00;;;3.90;;
75730;SDS011;64350;47.450;19.124;2023-02-01T17:33:21;8.82;;;3.78;;
75730;SDS011;64350;47.450;19.124;2023-02-01T17:35:49;10.87;;;4.03;;
75730;SDS011;64350;47.450;19.124;2023-02-01T17:38:15;7.75;;;3.15;;
75730;SDS011;64350;47.450;19.124;2023-02-01T17:40:41;7.95;;;2.97;;
75730;SDS011;64350;47.450;19.124;2023-02-01T17:43:13;8.93;;;3.70;;
75730;SDS011;64350;47.450;19.124;2023-02-01T17:48:16;9.07;;;4.05;;
75730;SDS011;64350;47.450;19.124;2023-02-01T17:50:43;9.15;;;3.33;;
75730;SDS011;64350;47.450;19.124;2023-02-01T17:53:09;6.57;;;3.35;;
75730;SDS011;64350;47.450;19.124;2023-02-01T17:55:36;6.73;;;3.13;;
75730;SDS011;64350;47.450;19.124;2023-02-01T17:58:03;7.50;;;3.90;;
75730;SDS011;64350;47.450;19.124;2023-02-01T18:00:28;10.20;;;3.85;;
75730;SDS011;64350;47.450;19.124;2023-02-01T18:02:54;8.30;;;3.90;;
75730;SDS011;64350;47.450;19.124;2023-02-01T18:05:42;7.80;;;4.30;;
75730;SDS011;64350;47.450;19.124;2023-02-01T18:08:08;9.52;;;3.97;;
75730;SDS011;64350;47.450;19.124;2023-02-01T18:10:34;8.27;;;4.07;;
75730;SDS011;64350;47.450;19.124;2023-02-01T18:13:01;11.95;;;5.15;;
75730;SDS011;64350;47.450;19.124;2023-02-01T18:15:28;9.00;;;4.60;;
75730;SDS011;64350;47.450;19.124;2023-02-01T18:17:54;10.45;;;5.28;;
75730;SDS011;64350;47.450;19.124;2023-02-01T18:20:20;15.10;;;6.27;;
75730;SDS011;64350;47.450;19.124;2023-02-01T18:22:48;13.48;;;6.75;;
75730;SDS011;64350;47.450;19.124;2023-02-01T18:27:48;17.52;;;7.40;;
75730;SDS011;64350;47.450;19.124;2023-02-01T18:30:14;16.05;;;7.35;;
75730;SDS011;64350;47.450;19.124;2023-02-01T18:32:40;18.13;;;8.30;;
75730;SDS011;64350;47.450;19.124;2023-02-01T18:35:17;13.20;;;6.25;;
75730;SDS011;64350;47.450;19.124;2023-02-01T18:37:47;11.32;;;5.57;;
75730;SDS011;64350;47.450;19.124;2023-02-01T18:40:14;7.10;;;3.30;;
75730;SDS011;64350;47.450;19.124;2023-02-01T18:42:41;6.95;;;3.60;;
75730;SDS011;64350;47.450;19.124;2023-02-01T18:45:29;6.23;;;2.83;;
75730;SDS011;64350;47.450;19.124;2023-02-01T18:47:52;6.22;;;2.45;;
75730;SDS011;64350;47.450;19.124;2023-02-01T18:50:21;6.20;;;2.43;;
75730;SDS011;64350;47.450;19.124;2023-02-01T18:52:47;5.00;;;2.08;;
75730;SDS011;64350;47.450;19.124;2023-02-01T18:58:22;4.57;;;1.93;;
75730;SDS011;64350;47.450;19.124;2023-02-01T19:00:50;5.40;;;2.15;;
75730;SDS011;64350;47.450;19.124;2023-02-01T19:03:17;5.72;;;2.17;;
75730;SDS011;64350;47.450;19.124;2023-02-01T19:05:43;5.93;;;2.37;;
75730;SDS011;64350;47.450;19.124;2023-02-01T19:08:10;5.47;;;2.37;;
75730;SDS011;64350;47.450;19.124;2023-02-01T19:10:35;5.70;;;2.40;;
75730;SDS011;64350;47.450;19.124;2023-02-01T19:13:02;5.90;;;2.20;;
75730;SDS011;64350;47.450;19.124;2023-02-01T19:15:28;5.45;;;2.08;;
75730;SDS011;64350;47.450;19.124;2023-02-01T19:17:54;5.43;;;1.60;;
75730;SDS011;64350;47.450;19.124;2023-02-01T19:20:20;5.20;;;2.30;;
75730;SDS011;64350;47.450;19.124;2023-02-01T19:22:49;6.97;;;2.30;;
75730;SDS011;64350;47.450;19.124;2023-02-01T19:25:19;6.55;;;2.50;;
75730;SDS011;64350;47.450;19.124;2023-02-01T19:27:46;9.98;;;2.90;;
75730;SDS011;64350;47.450;19.124;2023-02-01T19:30:13;7.70;;;2.80;;
75730;SDS011;64350;47.450;19.124;2023-02-01T19:32:39;9.13;;;2.65;;
75730;SDS011;64350;47.450;19.124;2023-02-01T19:35:04;6.32;;;2.78;;
75730;SDS011;64350;47.450;19.124;2023-02-01T19:37:30;6.40;;;2.57;;
75730;SDS011;64350;47.450;19.124;2023-02-01T19:39:56;9.02;;;2.55;;
75730;SDS011;64350;47.450;19.124;2023-02-01T19:42:23;5.23;;;2.00;;
75730;SDS011;64350;47.450;19.124;2023-02-01T19:44:49;5.68;;;1.87;;
75730;SDS011;64350;47.450;19.124;2023-02-01T19:47:15;6.50;;;2.33;;
75730;SDS011;64350;47.450;19.124;2023-02-01T19:49:40;5.50;;;2.10;;
75730;SDS011;64350;47.450;19.124;2023-02-01T19:52:06;8.13;;;2.40;;
75730;SDS011;64350;47.450;19.124;2023-02-01T19:54:31;6.53;;;2.10;;
75730;SDS011;64350;47.450;19.124;2023-02-01T19:56:57;4.57;;;1.65;;
75730;SDS011;64350;47.450;19.124;2023-02-01T19:59:22;7.10;;;2.30;;
75730;SDS011;64350;47.450;19.124;2023-02-01T20:01:48;7.57;;;2.60;;
75730;SDS011;64350;47.450;19.124;2023-02-01T20:04:14;5.80;;;2.30;;
75730;SDS011;64350;47.450;19.124;2023-02-01T20:06:40;7.80;;;2.53;;
75730;SDS011;64350;47.450;19.124;2023-02-01T20:09:13;8.93;;;2.62;;
75730;SDS011;64350;47.450;19.124;2023-02-01T20:11:45;7.43;;;2.60;;
75730;SDS011;64350;47.450;19.124;2023-02-01T20:14:11;7.20;;;2.93;;
75730;SDS011;64350;47.450;19.124;2023-02-01T20:16:37;6.93;;;2.15;;
75730;SDS011;64350;47.450;19.124;2023-02-01T20:19:03;6.28;;;2.20;;
75730;SDS011;64350;47.450;19.124;2023-02-01T20:21:29;7.33;;;2.30;;
75730;SDS011;64350;47.450;19.124;2023-02-01T20:24:05;8.30;;;3.05;;
75730;SDS011;64350;47.450;19.124;2023-02-01T20:26:30;5.18;;;1.80;;
75730;SDS011;64350;47.450;19.124;2023-02-01T20:28:57;6.80;;;2.10;;
75730;SDS011;64350;47.450;19.124;2023-02-01T20:31:24;7.90;;;2.30;;
75730;SDS011;64350;47.450;19.124;2023-02-01T20:33:52;11.75;;;3.40;;
75730;SDS011;64350;47.450;19.124;2023-02-01T20:36:18;8.45;;;2.60;;
75730;SDS011;64350;47.450;19.124;2023-02-01T20:38:43;5.87;;;2.33;;
75730;SDS011;64350;47.450;19.124;2023-02-01T20:41:09;5.37;;;1.90;;
75730;SDS011;64350;47.450;19.124;2023-02-01T20:43:34;8.17;;;2.67;;
75730;SDS011;64350;47.450;19.124;2023-02-01T20:46:00;7.22;;;3.10;;
75730;SDS011;64350;47.450;19.124;2023-02-01T20:48:26;7.25;;;2.33;;
75730;SDS011;64350;47.450;19.124;2023-02-01T20:50:53;8.43;;;2.77;;
75730;SDS011;64350;47.450;19.124;2023-02-01T20:53:19;6.40;;;2.78;;
75730;SDS011;64350;47.450;19.124;2023-02-01T20:55:45;8.35;;;2.97;;
75730;SDS011;64350;47.450;19.124;2023-02-01T20:58:10;8.37;;;3.27;;
75730;SDS011;64350;47.450;19.124;2023-02-01T21:00:36;6.13;;;2.80;;
75730;SDS011;64350;47.450;19.124;2023-02-01T21:03:01;7.30;;;2.93;;
75730;SDS011;64350;47.450;19.124;2023-02-01T21:05:27;6.68;;;2.50;;
75730;SDS011;64350;47.450;19.124;2023-02-01T21:08:04;8.87;;;2.97;;
75730;SDS011;64350;47.450;19.124;2023-02-01T21:10:38;5.90;;;2.20;;
75730;SDS011;64350;47.450;19.124;2023-02-01T21:13:04;5.80;;;2.00;;
75730;SDS011;64350;47.450;19.124;2023-02-01T21:15:32;4.78;;;2.12;;
75730;SDS011;64350;47.450;19.124;2023-02-01T21:18:01;7.03;;;2.00;;
75730;SDS011;64350;47.450;19.124;2023-02-01T21:20:29;5.32;;;1.52;;
75730;SDS011;64350;47.450;19.124;2023-02-01T21:22:55;5.07;;;2.03;;
75730;SDS011;64350;47.450;19.124;2023-02-01T21:25:21;6.55;;;1.70;;
75730;SDS011;64350;47.450;19.124;2023-02-01T21:27:47;5.83;;;1.90;;
75730;SDS011;64350;47.450;19.124;2023-02-01T21:30:12;5.15;;;1.65;;
75730;SDS011;64350;47.450;19.124;2023-02-01T21:32:38;4.75;;;1.87;;
75730;SDS011;64350;47.450;19.124;2023-02-01T21:35:04;5.03;;;2.07;;
75730;SDS011;64350;47.450;19.124;2023-02-01T21:37:30;4.72;;;1.50;;
75730;SDS011;64350;47.450;19.124;2023-02-01T21:39:55;5.50;;;1.87;;
75730;SDS011;64350;47.450;19.124;2023-02-01T21:42:21;4.80;;;1.90;;
75730;SDS011;64350;47.450;19.124;2023-02-01T21:44:48;5.45;;;2.03;;
75730;SDS011;64350;47.450;19.124;2023-02-01T21:47:15;6.55;;;1.80;;
75730;SDS011;64350;47.450;19.124;2023-02-01T21:49:42;4.22;;;1.73;;
75730;SDS011;64350;47.450;19.124;2023-02-01T21:52:08;4.33;;;1.87;;
75730;SDS011;64350;47.450;19.124;2023-02-01T21:54:33;5.62;;;2.03;;
